Gray Army Air Field
KGRF : now visible

Airfield :











YOU CAN JOIN US ON...

 
LOGIN :

Register | Disclaimer

   EN    FR    IT 

 









Legend :    VFR   Marginal VFR   IFR   Intensive IFR   Very Intensive IFR
Visi :
Ceiling :
>= 8 km
>= 3000ft
5 to 8 km
1000 to 3000 ft
1500m to 5 km
500 to 1000 ft
800 to 1500m
200 to 500 ft
< 800m
< 200 ft
Symbols :   Thunderstorms  Fog  Heavy snow  Heavy precipitations  Wind > 20 kt






- Airport Elevation : 300 ft


KGRF - Gray Army Air Field

CURRENT METAR :
  • 291258Z 16006KT 10SM CLR 09/09 A3015 RMK AO2A SLP215 T00880086 $

EXPIRED METARs :
  • 291158Z 15009KT 10SM CLR 09/09 A3019 RMK AO2A SLP228 70036 T00880086 10091 20065 58006 $
  • 291058Z 17009KT 10SM FEW028 09/09 A3021 RMK AO2A SLP235 T00900088 $

TAF TAF KGRF
Valid from the 29 at 13:00 until the 30 at 19:00 UTC


291300Z 2913/3019 17009KT 8000 -RA FEW020 OVC030 620507 QNH3009INS
BECMG 2917/2918 19012G18KT 8000 -RA BKN020 OVC030 620709 510205 QNH3005INS
BECMG 2920/2921 VRB06KT 9999 NSW SCT150 QNH3013INS
BECMG 3002/3003 VRB06KT 6000 BR BKN015 OVC020 QNH3022INS
BECMG 3017/3018 VRB06KT 9999 NSW BKN015 QNH3020INS TX09/2920Z TN04/3012Z



MET'MAP, your aeronautical weather chart ! - Copyright ORBIFLY December 2007 - Disclaimer

ORBIFLY MET'MAP TEAM :

Programming & Development : Alexandra Zaïnal
Concept & original design : Baudouin d'Aumeries
Assistance for programming : Marc-Olivier Méhu
Technical & hardware support : Manuel Goepfert

Contact : metmap@orbifly.com




SOURCES & CREDITS :

   NOAA       Earth
Advisory